<?xml version="1.0" encoding="UTF-8" standalone="no" ?>
<gpx xmlns="http://www.topografix.com/GPX/1/1" xmlns:xsi="http://www.w3.org/2001/XMLSchema-instance" xsi:schemaLocation="http://www.topografix.com/GPX/1/1 http://www.topografix.com/GPX/1/1/gpx.xsd" version="1.1" creator="VisuGPX - https://www.visugpx.com">
  <metadata>
    <name>De Meillerie à Salvigny</name>
    <desc><![CDATA[Randonnée en Haute-Savoie]]></desc>
  </metadata>
  <trk>
    <name><![CDATA[ACTIVE LOG: 26 JUL 2015 14:23]]></name>
    <trkseg>
      <trkpt lat="46.35256" lon="6.72824">
        <ele>2118.4</ele>
        <time>2015-07-26T12:23:41Z</time>
      </trkpt>
      <trkpt lat="46.35271" lon="6.72872">
        <ele>2121.77</ele>
        <time>2015-07-26T12:24:46Z</time>
      </trkpt>
      <trkpt lat="46.35279" lon="6.72909">
        <ele>2130.42</ele>
        <time>2015-07-26T12:25:51Z</time>
      </trkpt>
      <trkpt lat="46.35287" lon="6.72942">
        <ele>2141.95</ele>
        <time>2015-07-26T12:26:56Z</time>
      </trkpt>
      <trkpt lat="46.35267" lon="6.72947">
        <ele>2149.65</ele>
        <time>2015-07-26T12:28:01Z</time>
      </trkpt>
      <trkpt lat="46.35276" lon="6.72966">
        <ele>2153.01</ele>
        <time>2015-07-26T12:29:06Z</time>
      </trkpt>
      <trkpt lat="46.3527" lon="6.72987">
        <ele>2160.22</ele>
        <time>2015-07-26T12:30:11Z</time>
      </trkpt>
      <trkpt lat="46.35265" lon="6.72996">
        <ele>2166.47</ele>
        <time>2015-07-26T12:31:16Z</time>
      </trkpt>
      <trkpt lat="46.35261" lon="6.72999">
        <ele>2171.76</ele>
        <time>2015-07-26T12:32:21Z</time>
      </trkpt>
      <trkpt lat="46.35249" lon="6.72987">
        <ele>2174.64</ele>
        <time>2015-07-26T12:33:26Z</time>
      </trkpt>
      <trkpt lat="46.35253" lon="6.72994">
        <ele>2178.48</ele>
        <time>2015-07-26T12:34:31Z</time>
      </trkpt>
      <trkpt lat="46.35246" lon="6.72987">
        <ele>2184.25</ele>
        <time>2015-07-26T12:35:36Z</time>
      </trkpt>
      <trkpt lat="46.35254" lon="6.73002">
        <ele>2186.66</ele>
        <time>2015-07-26T12:36:41Z</time>
      </trkpt>
      <trkpt lat="46.35258" lon="6.73003">
        <ele>2187.14</ele>
        <time>2015-07-26T12:37:46Z</time>
      </trkpt>
      <trkpt lat="46.35265" lon="6.73009">
        <ele>2193.87</ele>
        <time>2015-07-26T12:38:51Z</time>
      </trkpt>
      <trkpt lat="46.35277" lon="6.73024">
        <ele>2199.15</ele>
        <time>2015-07-26T12:39:56Z</time>
      </trkpt>
      <trkpt lat="46.3528" lon="6.73046">
        <ele>2202.52</ele>
        <time>2015-07-26T12:41:01Z</time>
      </trkpt>
      <trkpt lat="46.35283" lon="6.73084">
        <ele>2210.21</ele>
        <time>2015-07-26T12:42:06Z</time>
      </trkpt>
      <trkpt lat="46.35298" lon="6.73118">
        <ele>2209.73</ele>
        <time>2015-07-26T12:43:11Z</time>
      </trkpt>
      <trkpt lat="46.35295" lon="6.73143">
        <ele>2215.5</ele>
        <time>2015-07-26T12:44:16Z</time>
      </trkpt>
      <trkpt lat="46.35303" lon="6.73168">
        <ele>2206.84</ele>
        <time>2015-07-26T12:45:21Z</time>
      </trkpt>
      <trkpt lat="46.35308" lon="6.73207">
        <ele>2199.15</ele>
        <time>2015-07-26T12:46:26Z</time>
      </trkpt>
      <trkpt lat="46.35298" lon="6.73233">
        <ele>2200.11</ele>
        <time>2015-07-26T12:47:31Z</time>
      </trkpt>
      <trkpt lat="46.35297" lon="6.73258">
        <ele>2199.15</ele>
        <time>2015-07-26T12:48:36Z</time>
      </trkpt>
      <trkpt lat="46.35295" lon="6.7328">
        <ele>2189.06</ele>
        <time>2015-07-26T12:49:41Z</time>
      </trkpt>
      <trkpt lat="46.35292" lon="6.73284">
        <ele>2186.66</ele>
        <time>2015-07-26T12:50:46Z</time>
      </trkpt>
      <trkpt lat="46.35285" lon="6.73298">
        <ele>2182.81</ele>
        <time>2015-07-26T12:51:51Z</time>
      </trkpt>
      <trkpt lat="46.3528" lon="6.733">
        <ele>2176.56</ele>
        <time>2015-07-26T12:52:56Z</time>
      </trkpt>
      <trkpt lat="46.35276" lon="6.73303">
        <ele>2170.31</ele>
        <time>2015-07-26T12:54:01Z</time>
      </trkpt>
      <trkpt lat="46.35269" lon="6.73313">
        <ele>2161.66</ele>
        <time>2015-07-26T12:55:06Z</time>
      </trkpt>
      <trkpt lat="46.35256" lon="6.73323">
        <ele>2154.93</ele>
        <time>2015-07-26T12:56:11Z</time>
      </trkpt>
      <trkpt lat="46.35248" lon="6.73353">
        <ele>2146.76</ele>
        <time>2015-07-26T12:57:16Z</time>
      </trkpt>
      <trkpt lat="46.3523" lon="6.73397">
        <ele>2138.11</ele>
        <time>2015-07-26T12:58:21Z</time>
      </trkpt>
      <trkpt lat="46.35229" lon="6.73405">
        <ele>2134.74</ele>
        <time>2015-07-26T12:59:26Z</time>
      </trkpt>
      <trkpt lat="46.35232" lon="6.73435">
        <ele>2121.77</ele>
        <time>2015-07-26T13:00:31Z</time>
      </trkpt>
      <trkpt lat="46.35224" lon="6.73458">
        <ele>2110.71</ele>
        <time>2015-07-26T13:01:36Z</time>
      </trkpt>
      <trkpt lat="46.35218" lon="6.73468">
        <ele>2105.91</ele>
        <time>2015-07-26T13:02:41Z</time>
      </trkpt>
      <trkpt lat="46.3522" lon="6.73467">
        <ele>2109.27</ele>
        <time>2015-07-26T13:03:46Z</time>
      </trkpt>
      <trkpt lat="46.35206" lon="6.73493">
        <ele>2101.1</ele>
        <time>2015-07-26T13:04:51Z</time>
      </trkpt>
      <trkpt lat="46.35197" lon="6.73495">
        <ele>2096.29</ele>
        <time>2015-07-26T13:05:56Z</time>
      </trkpt>
      <trkpt lat="46.35193" lon="6.73511">
        <ele>2086.68</ele>
        <time>2015-07-26T13:07:01Z</time>
      </trkpt>
      <trkpt lat="46.35193" lon="6.73537">
        <ele>2073.22</ele>
        <time>2015-07-26T13:08:06Z</time>
      </trkpt>
      <trkpt lat="46.35187" lon="6.73561">
        <ele>2064.57</ele>
        <time>2015-07-26T13:09:11Z</time>
      </trkpt>
      <trkpt lat="46.35187" lon="6.73581">
        <ele>2054.96</ele>
        <time>2015-07-26T13:10:16Z</time>
      </trkpt>
      <trkpt lat="46.35182" lon="6.73602">
        <ele>2045.34</ele>
        <time>2015-07-26T13:11:21Z</time>
      </trkpt>
      <trkpt lat="46.35179" lon="6.73618">
        <ele>2041.5</ele>
        <time>2015-07-26T13:12:26Z</time>
      </trkpt>
      <trkpt lat="46.35179" lon="6.7363">
        <ele>2033.81</ele>
        <time>2015-07-26T13:13:31Z</time>
      </trkpt>
      <trkpt lat="46.35171" lon="6.73644">
        <ele>2029</ele>
        <time>2015-07-26T13:14:36Z</time>
      </trkpt>
      <trkpt lat="46.35169" lon="6.7364">
        <ele>2026.6</ele>
        <time>2015-07-26T13:15:41Z</time>
      </trkpt>
      <trkpt lat="46.35163" lon="6.73659">
        <ele>2025.15</ele>
        <time>2015-07-26T13:16:46Z</time>
      </trkpt>
      <trkpt lat="46.35166" lon="6.73671">
        <ele>2022.27</ele>
        <time>2015-07-26T13:17:51Z</time>
      </trkpt>
      <trkpt lat="46.35166" lon="6.73671">
        <ele>2019.87</ele>
        <time>2015-07-26T13:18:56Z</time>
      </trkpt>
      <trkpt lat="46.35171" lon="6.73695">
        <ele>2017.94</ele>
        <time>2015-07-26T13:20:01Z</time>
      </trkpt>
      <trkpt lat="46.35164" lon="6.73731">
        <ele>2022.27</ele>
        <time>2015-07-26T13:21:06Z</time>
      </trkpt>
      <trkpt lat="46.35147" lon="6.73739">
        <ele>2013.14</ele>
        <time>2015-07-26T13:22:11Z</time>
      </trkpt>
      <trkpt lat="46.3513" lon="6.73767">
        <ele>2003.52</ele>
        <time>2015-07-26T13:23:16Z</time>
      </trkpt>
      <trkpt lat="46.35131" lon="6.7377">
        <ele>2001.6</ele>
        <time>2015-07-26T13:24:21Z</time>
      </trkpt>
      <trkpt lat="46.35114" lon="6.73769">
        <ele>1992.95</ele>
        <time>2015-07-26T13:25:26Z</time>
      </trkpt>
      <trkpt lat="46.35112" lon="6.73786">
        <ele>1983.34</ele>
        <time>2015-07-26T13:26:31Z</time>
      </trkpt>
      <trkpt lat="46.35104" lon="6.73809">
        <ele>1981.9</ele>
        <time>2015-07-26T13:27:36Z</time>
      </trkpt>
      <trkpt lat="46.35098" lon="6.73817">
        <ele>1984.78</ele>
        <time>2015-07-26T13:28:41Z</time>
      </trkpt>
      <trkpt lat="46.35091" lon="6.73893">
        <ele>1993.43</ele>
        <time>2015-07-26T13:29:46Z</time>
      </trkpt>
      <trkpt lat="46.35068" lon="6.73932">
        <ele>1976.61</ele>
        <time>2015-07-26T13:30:51Z</time>
      </trkpt>
      <trkpt lat="46.3506" lon="6.73909">
        <ele>1967.48</ele>
        <time>2015-07-26T13:31:56Z</time>
      </trkpt>
      <trkpt lat="46.35045" lon="6.73883">
        <ele>1947.77</ele>
        <time>2015-07-26T13:33:01Z</time>
      </trkpt>
      <trkpt lat="46.35042" lon="6.7384">
        <ele>1930.95</ele>
        <time>2015-07-26T13:34:06Z</time>
      </trkpt>
      <trkpt lat="46.35014" lon="6.73826">
        <ele>1916.04</ele>
        <time>2015-07-26T13:35:11Z</time>
      </trkpt>
      <trkpt lat="46.35008" lon="6.7378">
        <ele>1904.03</ele>
        <time>2015-07-26T13:36:16Z</time>
      </trkpt>
      <trkpt lat="46.35009" lon="6.7373">
        <ele>1886.72</ele>
        <time>2015-07-26T13:37:21Z</time>
      </trkpt>
      <trkpt lat="46.34984" lon="6.73699">
        <ele>1870.38</ele>
        <time>2015-07-26T13:38:26Z</time>
      </trkpt>
      <trkpt lat="46.34963" lon="6.73691">
        <ele>1855.48</ele>
        <time>2015-07-26T13:39:31Z</time>
      </trkpt>
      <trkpt lat="46.3495" lon="6.73668">
        <ele>1846.83</ele>
        <time>2015-07-26T13:40:36Z</time>
      </trkpt>
      <trkpt lat="46.34938" lon="6.73676">
        <ele>1835.29</ele>
        <time>2015-07-26T13:41:41Z</time>
      </trkpt>
      <trkpt lat="46.34925" lon="6.73621">
        <ele>1821.35</ele>
        <time>2015-07-26T13:42:46Z</time>
      </trkpt>
      <trkpt lat="46.34916" lon="6.73569">
        <ele>1808.38</ele>
        <time>2015-07-26T13:43:51Z</time>
      </trkpt>
      <trkpt lat="46.34886" lon="6.73577">
        <ele>1795.88</ele>
        <time>2015-07-26T13:44:56Z</time>
      </trkpt>
      <trkpt lat="46.34871" lon="6.73589">
        <ele>1788.19</ele>
        <time>2015-07-26T13:46:01Z</time>
      </trkpt>
      <trkpt lat="46.34856" lon="6.73564">
        <ele>1778.1</ele>
        <time>2015-07-26T13:47:06Z</time>
      </trkpt>
      <trkpt lat="46.34834" lon="6.73561">
        <ele>1769.92</ele>
        <time>2015-07-26T13:48:11Z</time>
      </trkpt>
      <trkpt lat="46.34793" lon="6.73526">
        <ele>1769.44</ele>
        <time>2015-07-26T13:49:16Z</time>
      </trkpt>
      <trkpt lat="46.34756" lon="6.73493">
        <ele>1777.61</ele>
        <time>2015-07-26T13:50:21Z</time>
      </trkpt>
      <trkpt lat="46.34749" lon="6.73459">
        <ele>1780.98</ele>
        <time>2015-07-26T13:51:26Z</time>
      </trkpt>
      <trkpt lat="46.34719" lon="6.73458">
        <ele>1782.42</ele>
        <time>2015-07-26T13:52:31Z</time>
      </trkpt>
      <trkpt lat="46.34698" lon="6.73426">
        <ele>1787.71</ele>
        <time>2015-07-26T13:53:36Z</time>
      </trkpt>
      <trkpt lat="46.34673" lon="6.73425">
        <ele>1780.98</ele>
        <time>2015-07-26T13:54:41Z</time>
      </trkpt>
      <trkpt lat="46.34673" lon="6.73404">
        <ele>1780.5</ele>
        <time>2015-07-26T13:55:01Z</time>
      </trkpt>
    </trkseg>
  </trk>
</gpx>